sensor_id;sensor_type;location;lat;lon;timestamp;P1;durP1;ratioP1;P2;durP2;ratioP2
83929;SDS011;73959;52.130;5.584;2023-12-28T00:01:30;6.57;;;4.07;;
83929;SDS011;73959;52.130;5.584;2023-12-28T00:03:55;6.35;;;3.58;;
83929;SDS011;73959;52.130;5.584;2023-12-28T00:06:21;7.30;;;3.97;;
83929;SDS011;73959;52.130;5.584;2023-12-28T00:08:47;5.75;;;3.47;;
83929;SDS011;73959;52.130;5.584;2023-12-28T00:11:13;8.63;;;3.88;;
83929;SDS011;73959;52.130;5.584;2023-12-28T00:13:39;9.57;;;3.85;;
83929;SDS011;73959;52.130;5.584;2023-12-28T00:16:06;7.47;;;3.58;;
83929;SDS011;73959;52.130;5.584;2023-12-28T00:18:32;7.80;;;3.75;;
83929;SDS011;73959;52.130;5.584;2023-12-28T00:20:57;5.72;;;3.50;;
83929;SDS011;73959;52.130;5.584;2023-12-28T00:23:23;7.32;;;3.80;;
83929;SDS011;73959;52.130;5.584;2023-12-28T00:25:49;7.47;;;3.58;;
83929;SDS011;73959;52.130;5.584;2023-12-28T00:28:15;8.77;;;3.90;;
83929;SDS011;73959;52.130;5.584;2023-12-28T00:30:41;7.45;;;3.75;;
83929;SDS011;73959;52.130;5.584;2023-12-28T00:33:07;4.75;;;3.10;;
83929;SDS011;73959;52.130;5.584;2023-12-28T00:35:33;7.28;;;4.22;;
83929;SDS011;73959;52.130;5.584;2023-12-28T00:37:59;8.02;;;3.67;;
83929;SDS011;73959;52.130;5.584;2023-12-28T00:40:25;7.75;;;3.90;;
83929;SDS011;73959;52.130;5.584;2023-12-28T00:42:51;11.27;;;4.10;;
83929;SDS011;73959;52.130;5.584;2023-12-28T00:45:17;7.82;;;3.90;;
83929;SDS011;73959;52.130;5.584;2023-12-28T00:47:43;7.38;;;3.80;;
83929;SDS011;73959;52.130;5.584;2023-12-28T00:50:09;5.93;;;3.92;;
83929;SDS011;73959;52.130;5.584;2023-12-28T00:52:40;8.52;;;4.53;;
83929;SDS011;73959;52.130;5.584;2023-12-28T00:55:06;7.32;;;3.83;;
83929;SDS011;73959;52.130;5.584;2023-12-28T00:57:32;8.43;;;4.43;;
83929;SDS011;73959;52.130;5.584;2023-12-28T00:59:58;9.13;;;4.05;;
83929;SDS011;73959;52.130;5.584;2023-12-28T01:02:24;7.32;;;3.92;;
83929;SDS011;73959;52.130;5.584;2023-12-28T01:04:50;6.28;;;4.03;;
83929;SDS011;73959;52.130;5.584;2023-12-28T01:07:16;7.05;;;4.18;;
83929;SDS011;73959;52.130;5.584;2023-12-28T01:09:42;7.32;;;4.30;;
83929;SDS011;73959;52.130;5.584;2023-12-28T01:12:08;8.75;;;4.55;;
83929;SDS011;73959;52.130;5.584;2023-12-28T01:14:34;8.90;;;4.43;;
83929;SDS011;73959;52.130;5.584;2023-12-28T01:17:00;6.10;;;4.07;;
83929;SDS011;73959;52.130;5.584;2023-12-28T01:19:26;9.95;;;4.20;;
83929;SDS011;73959;52.130;5.584;2023-12-28T01:21:52;5.57;;;3.80;;
83929;SDS011;73959;52.130;5.584;2023-12-28T01:24:18;9.68;;;4.57;;
83929;SDS011;73959;52.130;5.584;2023-12-28T01:26:44;6.70;;;3.83;;
83929;SDS011;73959;52.130;5.584;2023-12-28T01:29:10;7.90;;;4.05;;
83929;SDS011;73959;52.130;5.584;2023-12-28T01:31:36;8.18;;;4.25;;
83929;SDS011;73959;52.130;5.584;2023-12-28T01:34:04;8.15;;;4.20;;
83929;SDS011;73959;52.130;5.584;2023-12-28T01:36:29;7.72;;;4.10;;
83929;SDS011;73959;52.130;5.584;2023-12-28T01:38:56;6.25;;;4.07;;
83929;SDS011;73959;52.130;5.584;2023-12-28T01:41:22;5.95;;;3.88;;
83929;SDS011;73959;52.130;5.584;2023-12-28T01:43:48;8.05;;;3.78;;
83929;SDS011;73959;52.130;5.584;2023-12-28T01:46:15;8.65;;;4.05;;
83929;SDS011;73959;52.130;5.584;2023-12-28T01:48:42;7.30;;;4.25;;
83929;SDS011;73959;52.130;5.584;2023-12-28T01:51:09;9.00;;;4.07;;
83929;SDS011;73959;52.130;5.584;2023-12-28T01:53:36;9.10;;;4.07;;
83929;SDS011;73959;52.130;5.584;2023-12-28T01:56:02;9.32;;;4.10;;
83929;SDS011;73959;52.130;5.584;2023-12-28T01:58:29;9.50;;;3.63;;
83929;SDS011;73959;52.130;5.584;2023-12-28T02:00:58;7.63;;;3.72;;
83929;SDS011;73959;52.130;5.584;2023-12-28T02:03:24;7.47;;;3.88;;
83929;SDS011;73959;52.130;5.584;2023-12-28T02:05:50;5.40;;;3.30;;
83929;SDS011;73959;52.130;5.584;2023-12-28T02:08:17;6.78;;;4.47;;
83929;SDS011;73959;52.130;5.584;2023-12-28T02:10:43;8.05;;;4.25;;
83929;SDS011;73959;52.130;5.584;2023-12-28T02:13:09;9.70;;;3.92;;
83929;SDS011;73959;52.130;5.584;2023-12-28T02:15:35;7.68;;;4.28;;
83929;SDS011;73959;52.130;5.584;2023-12-28T02:18:10;9.52;;;4.25;;
83929;SDS011;73959;52.130;5.584;2023-12-28T02:20:38;6.65;;;4.03;;
83929;SDS011;73959;52.130;5.584;2023-12-28T02:23:05;6.95;;;3.92;;
83929;SDS011;73959;52.130;5.584;2023-12-28T02:25:31;6.07;;;3.42;;
83929;SDS011;73959;52.130;5.584;2023-12-28T02:27:57;8.38;;;3.85;;
83929;SDS011;73959;52.130;5.584;2023-12-28T02:30:23;6.25;;;3.85;;
83929;SDS011;73959;52.130;5.584;2023-12-28T02:35:36;9.68;;;4.07;;
83929;SDS011;73959;52.130;5.584;2023-12-28T02:38:08;7.18;;;3.72;;
83929;SDS011;73959;52.130;5.584;2023-12-28T02:40:36;6.47;;;4.10;;
83929;SDS011;73959;52.130;5.584;2023-12-28T02:43:03;7.45;;;3.78;;
83929;SDS011;73959;52.130;5.584;2023-12-28T02:45:29;9.68;;;3.75;;
83929;SDS011;73959;52.130;5.584;2023-12-28T02:47:55;9.77;;;4.30;;
83929;SDS011;73959;52.130;5.584;2023-12-28T02:50:21;7.78;;;3.38;;
83929;SDS011;73959;52.130;5.584;2023-12-28T02:52:47;5.20;;;2.90;;
83929;SDS011;73959;52.130;5.584;2023-12-28T02:55:13;6.85;;;3.20;;
83929;SDS011;73959;52.130;5.584;2023-12-28T02:57:39;8.57;;;3.28;;
83929;SDS011;73959;52.130;5.584;2023-12-28T03:00:05;7.95;;;3.42;;
83929;SDS011;73959;52.130;5.584;2023-12-28T03:02:33;4.90;;;3.17;;
83929;SDS011;73959;52.130;5.584;2023-12-28T03:04:59;6.30;;;3.03;;
83929;SDS011;73959;52.130;5.584;2023-12-28T03:07:25;6.88;;;3.35;;
83929;SDS011;73959;52.130;5.584;2023-12-28T03:09:51;5.60;;;3.03;;
83929;SDS011;73959;52.130;5.584;2023-12-28T03:12:17;6.20;;;2.90;;
83929;SDS011;73959;52.130;5.584;2023-12-28T03:14:43;10.70;;;3.00;;
83929;SDS011;73959;52.130;5.584;2023-12-28T03:17:09;5.93;;;2.60;;
83929;SDS011;73959;52.130;5.584;2023-12-28T03:19:36;6.93;;;2.70;;
83929;SDS011;73959;52.130;5.584;2023-12-28T03:22:02;9.45;;;2.97;;
83929;SDS011;73959;52.130;5.584;2023-12-28T03:24:28;8.50;;;2.50;;
83929;SDS011;73959;52.130;5.584;2023-12-28T03:26:54;9.65;;;3.17;;
83929;SDS011;73959;52.130;5.584;2023-12-28T03:29:20;10.57;;;2.63;;
83929;SDS011;73959;52.130;5.584;2023-12-28T03:31:46;8.43;;;2.63;;
83929;SDS011;73959;52.130;5.584;2023-12-28T03:34:13;7.85;;;2.55;;
83929;SDS011;73959;52.130;5.584;2023-12-28T03:36:39;7.55;;;3.05;;
83929;SDS011;73959;52.130;5.584;2023-12-28T03:39:05;12.25;;;2.70;;
83929;SDS011;73959;52.130;5.584;2023-12-28T03:41:31;9.27;;;2.97;;
83929;SDS011;73959;52.130;5.584;2023-12-28T03:43:57;9.40;;;2.85;;
83929;SDS011;73959;52.130;5.584;2023-12-28T03:46:23;12.25;;;3.10;;
83929;SDS011;73959;52.130;5.584;2023-12-28T03:48:49;7.03;;;2.67;;
83929;SDS011;73959;52.130;5.584;2023-12-28T03:51:15;7.22;;;2.63;;
83929;SDS011;73959;52.130;5.584;2023-12-28T03:53:41;6.70;;;2.80;;
83929;SDS011;73959;52.130;5.584;2023-12-28T03:56:07;9.63;;;3.08;;
83929;SDS011;73959;52.130;5.584;2023-12-28T03:58:33;10.75;;;3.08;;
83929;SDS011;73959;52.130;5.584;2023-12-28T04:00:59;8.65;;;2.63;;
83929;SDS011;73959;52.130;5.584;2023-12-28T04:03:25;10.55;;;2.67;;
83929;SDS011;73959;52.130;5.584;2023-12-28T04:05:51;8.30;;;3.15;;
83929;SDS011;73959;52.130;5.584;2023-12-28T04:08:17;8.43;;;2.90;;
83929;SDS011;73959;52.130;5.584;2023-12-28T04:10:43;10.68;;;2.88;;
83929;SDS011;73959;52.130;5.584;2023-12-28T04:13:09;9.50;;;2.80;;
83929;SDS011;73959;52.130;5.584;2023-12-28T04:15:35;9.13;;;3.08;;
83929;SDS011;73959;52.130;5.584;2023-12-28T04:18:01;9.85;;;3.35;;
83929;SDS011;73959;52.130;5.584;2023-12-28T04:20:27;14.15;;;3.10;;
83929;SDS011;73959;52.130;5.584;2023-12-28T04:22:53;7.90;;;2.30;;
83929;SDS011;73959;52.130;5.584;2023-12-28T04:25:19;7.22;;;2.47;;
83929;SDS011;73959;52.130;5.584;2023-12-28T04:27:45;11.10;;;3.30;;
83929;SDS011;73959;52.130;5.584;2023-12-28T04:30:11;7.70;;;3.00;;
83929;SDS011;73959;52.130;5.584;2023-12-28T04:32:40;13.15;;;2.65;;
83929;SDS011;73959;52.130;5.584;2023-12-28T04:35:06;11.20;;;3.45;;
83929;SDS011;73959;52.130;5.584;2023-12-28T04:37:32;8.20;;;2.70;;
83929;SDS011;73959;52.130;5.584;2023-12-28T04:40:00;8.75;;;2.58;;
83929;SDS011;73959;52.130;5.584;2023-12-28T04:42:26;12.18;;;3.00;;
83929;SDS011;73959;52.130;5.584;2023-12-28T04:44:51;9.73;;;2.90;;
83929;SDS011;73959;52.130;5.584;2023-12-28T04:47:17;11.77;;;3.38;;
83929;SDS011;73959;52.130;5.584;2023-12-28T04:49:43;9.13;;;2.58;;
83929;SDS011;73959;52.130;5.584;2023-12-28T04:52:09;11.25;;;2.50;;
83929;SDS011;73959;52.130;5.584;2023-12-28T04:54:35;10.57;;;3.95;;
83929;SDS011;73959;52.130;5.584;2023-12-28T04:57:01;9.40;;;2.97;;
83929;SDS011;73959;52.130;5.584;2023-12-28T04:59:27;15.00;;;2.83;;
83929;SDS011;73959;52.130;5.584;2023-12-28T05:01:53;7.72;;;2.80;;
83929;SDS011;73959;52.130;5.584;2023-12-28T05:04:19;14.75;;;3.70;;
83929;SDS011;73959;52.130;5.584;2023-12-28T05:06:45;7.45;;;2.33;;
83929;SDS011;73959;52.130;5.584;2023-12-28T05:09:11;13.15;;;2.67;;
83929;SDS011;73959;52.130;5.584;2023-12-28T05:11:37;9.18;;;2.90;;
83929;SDS011;73959;52.130;5.584;2023-12-28T05:14:03;13.32;;;3.15;;
83929;SDS011;73959;52.130;5.584;2023-12-28T05:16:30;12.05;;;2.80;;
83929;SDS011;73959;52.130;5.584;2023-12-28T05:18:56;11.43;;;2.80;;
83929;SDS011;73959;52.130;5.584;2023-12-28T05:21:22;13.93;;;2.75;;
83929;SDS011;73959;52.130;5.584;2023-12-28T05:23:48;11.18;;;2.75;;
83929;SDS011;73959;52.130;5.584;2023-12-28T05:26:14;14.13;;;2.95;;
83929;SDS011;73959;52.130;5.584;2023-12-28T05:28:40;10.55;;;3.28;;
83929;SDS011;73959;52.130;5.584;2023-12-28T05:31:06;10.88;;;3.05;;
83929;SDS011;73959;52.130;5.584;2023-12-28T05:33:32;9.02;;;2.35;;
83929;SDS011;73959;52.130;5.584;2023-12-28T05:35:59;12.45;;;2.90;;
83929;SDS011;73959;52.130;5.584;2023-12-28T05:38:25;10.52;;;2.72;;
83929;SDS011;73959;52.130;5.584;2023-12-28T05:40:51;12.23;;;3.00;;
83929;SDS011;73959;52.130;5.584;2023-12-28T05:43:17;11.80;;;2.95;;
83929;SDS011;73959;52.130;5.584;2023-12-28T05:45:43;11.75;;;2.92;;
83929;SDS011;73959;52.130;5.584;2023-12-28T05:48:09;13.50;;;2.97;;
83929;SDS011;73959;52.130;5.584;2023-12-28T05:50:35;11.73;;;2.88;;
83929;SDS011;73959;52.130;5.584;2023-12-28T05:53:01;13.20;;;2.72;;
83929;SDS011;73959;52.130;5.584;2023-12-28T05:55:27;11.70;;;2.50;;
83929;SDS011;73959;52.130;5.584;2023-12-28T05:57:53;13.85;;;3.22;;
83929;SDS011;73959;52.130;5.584;2023-12-28T06:00:19;13.93;;;2.72;;
83929;SDS011;73959;52.130;5.584;2023-12-28T06:02:45;14.38;;;3.13;;
83929;SDS011;73959;52.130;5.584;2023-12-28T06:05:14;19.40;;;2.90;;
83929;SDS011;73959;52.130;5.584;2023-12-28T06:07:40;12.25;;;3.22;;
83929;SDS011;73959;52.130;5.584;2023-12-28T06:10:06;14.65;;;3.15;;
83929;SDS011;73959;52.130;5.584;2023-12-28T06:12:32;12.88;;;2.60;;
83929;SDS011;73959;52.130;5.584;2023-12-28T06:14:58;18.08;;;3.45;;
83929;SDS011;73959;52.130;5.584;2023-12-28T06:17:24;13.60;;;2.72;;
83929;SDS011;73959;52.130;5.584;2023-12-28T06:19:50;12.77;;;3.17;;
83929;SDS011;73959;52.130;5.584;2023-12-28T06:22:16;21.00;;;3.50;;
83929;SDS011;73959;52.130;5.584;2023-12-28T06:24:42;20.63;;;3.40;;
83929;SDS011;73959;52.130;5.584;2023-12-28T06:27:08;17.95;;;2.63;;
83929;SDS011;73959;52.130;5.584;2023-12-28T06:29:34;14.98;;;2.80;;
83929;SDS011;73959;52.130;5.584;2023-12-28T06:32:00;17.58;;;3.45;;
83929;SDS011;73959;52.130;5.584;2023-12-28T06:34:26;15.35;;;3.13;;
83929;SDS011;73959;52.130;5.584;2023-12-28T06:36:52;14.95;;;2.80;;
83929;SDS011;73959;52.130;5.584;2023-12-28T06:39:18;13.05;;;2.90;;
83929;SDS011;73959;52.130;5.584;2023-12-28T06:41:47;13.90;;;3.58;;
83929;SDS011;73959;52.130;5.584;2023-12-28T06:44:13;13.45;;;3.13;;
83929;SDS011;73959;52.130;5.584;2023-12-28T06:46:40;12.18;;;2.88;;
83929;SDS011;73959;52.130;5.584;2023-12-28T06:49:06;19.77;;;3.78;;
83929;SDS011;73959;52.130;5.584;2023-12-28T06:51:32;11.52;;;3.05;;
83929;SDS011;73959;52.130;5.584;2023-12-28T06:53:58;14.85;;;2.88;;
83929;SDS011;73959;52.130;5.584;2023-12-28T06:56:24;16.98;;;2.80;;
83929;SDS011;73959;52.130;5.584;2023-12-28T06:58:50;15.68;;;2.75;;
83929;SDS011;73959;52.130;5.584;2023-12-28T07:01:16;15.20;;;2.90;;
83929;SDS011;73959;52.130;5.584;2023-12-28T07:03:42;20.10;;;3.78;;
83929;SDS011;73959;52.130;5.584;2023-12-28T07:06:08;14.10;;;3.20;;
83929;SDS011;73959;52.130;5.584;2023-12-28T07:08:34;14.80;;;3.05;;
83929;SDS011;73959;52.130;5.584;2023-12-28T07:11:01;20.88;;;3.30;;
83929;SDS011;73959;52.130;5.584;2023-12-28T07:13:27;16.38;;;2.95;;
83929;SDS011;73959;52.130;5.584;2023-12-28T07:15:53;15.68;;;3.75;;
83929;SDS011;73959;52.130;5.584;2023-12-28T07:18:19;17.98;;;3.78;;
83929;SDS011;73959;52.130;5.584;2023-12-28T07:20:45;18.95;;;3.08;;
83929;SDS011;73959;52.130;5.584;2023-12-28T07:23:11;16.05;;;3.20;;
83929;SDS011;73959;52.130;5.584;2023-12-28T07:25:38;16.42;;;3.72;;
83929;SDS011;73959;52.130;5.584;2023-12-28T07:28:04;18.58;;;3.28;;
83929;SDS011;73959;52.130;5.584;2023-12-28T07:30:30;12.43;;;3.92;;
83929;SDS011;73959;52.130;5.584;2023-12-28T07:32:56;16.77;;;3.25;;
83929;SDS011;73959;52.130;5.584;2023-12-28T07:35:22;15.48;;;3.17;;
83929;SDS011;73959;52.130;5.584;2023-12-28T07:37:48;22.52;;;3.80;;
83929;SDS011;73959;52.130;5.584;2023-12-28T07:40:15;15.48;;;3.10;;
83929;SDS011;73959;52.130;5.584;2023-12-28T07:42:41;14.98;;;3.20;;
83929;SDS011;73959;52.130;5.584;2023-12-28T07:45:07;16.25;;;3.40;;
83929;SDS011;73959;52.130;5.584;2023-12-28T07:47:33;14.50;;;3.75;;
83929;SDS011;73959;52.130;5.584;2023-12-28T07:49:59;15.90;;;3.47;;
83929;SDS011;73959;52.130;5.584;2023-12-28T07:52:25;18.40;;;3.75;;
83929;SDS011;73959;52.130;5.584;2023-12-28T07:54:51;14.95;;;3.10;;
83929;SDS011;73959;52.130;5.584;2023-12-28T07:57:17;16.17;;;2.75;;
83929;SDS011;73959;52.130;5.584;2023-12-28T07:59:43;17.50;;;3.05;;
83929;SDS011;73959;52.130;5.584;2023-12-28T08:02:09;17.45;;;3.40;;
83929;SDS011;73959;52.130;5.584;2023-12-28T08:04:35;22.75;;;3.17;;
83929;SDS011;73959;52.130;5.584;2023-12-28T08:07:01;18.92;;;3.28;;
83929;SDS011;73959;52.130;5.584;2023-12-28T08:09:27;20.50;;;3.33;;
83929;SDS011;73959;52.130;5.584;2023-12-28T08:11:53;22.98;;;3.08;;
83929;SDS011;73959;52.130;5.584;2023-12-28T08:14:19;15.75;;;3.22;;
83929;SDS011;73959;52.130;5.584;2023-12-28T08:16:45;18.10;;;3.40;;
83929;SDS011;73959;52.130;5.584;2023-12-28T08:19:11;15.93;;;3.45;;
83929;SDS011;73959;52.130;5.584;2023-12-28T08:21:37;19.23;;;3.10;;
83929;SDS011;73959;52.130;5.584;2023-12-28T08:24:03;18.77;;;3.42;;
83929;SDS011;73959;52.130;5.584;2023-12-28T08:26:29;14.68;;;3.20;;
83929;SDS011;73959;52.130;5.584;2023-12-28T08:28:55;16.77;;;3.50;;
83929;SDS011;73959;52.130;5.584;2023-12-28T08:31:21;18.58;;;3.33;;
83929;SDS011;73959;52.130;5.584;2023-12-28T08:33:47;15.93;;;3.20;;
83929;SDS011;73959;52.130;5.584;2023-12-28T08:36:13;17.65;;;3.28;;
83929;SDS011;73959;52.130;5.584;2023-12-28T08:38:40;15.32;;;3.47;;
83929;SDS011;73959;52.130;5.584;2023-12-28T08:41:06;17.27;;;3.45;;
83929;SDS011;73959;52.130;5.584;2023-12-28T08:43:34;16.55;;;3.53;;
83929;SDS011;73959;52.130;5.584;2023-12-28T08:46:01;17.08;;;3.53;;
83929;SDS011;73959;52.130;5.584;2023-12-28T08:48:27;17.23;;;3.38;;
83929;SDS011;73959;52.130;5.584;2023-12-28T08:50:53;12.82;;;3.30;;
83929;SDS011;73959;52.130;5.584;2023-12-28T08:53:19;21.17;;;3.58;;
83929;SDS011;73959;52.130;5.584;2023-12-28T08:55:45;15.43;;;3.20;;
83929;SDS011;73959;52.130;5.584;2023-12-28T08:58:11;25.15;;;3.90;;
83929;SDS011;73959;52.130;5.584;2023-12-28T09:00:37;19.77;;;3.35;;
83929;SDS011;73959;52.130;5.584;2023-12-28T09:03:03;18.80;;;3.55;;
83929;SDS011;73959;52.130;5.584;2023-12-28T09:05:29;18.27;;;3.65;;
83929;SDS011;73959;52.130;5.584;2023-12-28T09:07:55;17.42;;;3.55;;
83929;SDS011;73959;52.130;5.584;2023-12-28T09:10:21;18.15;;;3.45;;
83929;SDS011;73959;52.130;5.584;2023-12-28T09:12:47;13.27;;;2.90;;
83929;SDS011;73959;52.130;5.584;2023-12-28T09:15:13;19.90;;;3.60;;
83929;SDS011;73959;52.130;5.584;2023-12-28T09:17:39;17.33;;;2.80;;
83929;SDS011;73959;52.130;5.584;2023-12-28T09:20:05;18.98;;;3.40;;
83929;SDS011;73959;52.130;5.584;2023-12-28T09:22:31;18.17;;;3.28;;
83929;SDS011;73959;52.130;5.584;2023-12-28T09:24:58;14.95;;;2.85;;
83929;SDS011;73959;52.130;5.584;2023-12-28T09:27:24;17.33;;;4.45;;
83929;SDS011;73959;52.130;5.584;2023-12-28T09:29:50;21.60;;;3.20;;
83929;SDS011;73959;52.130;5.584;2023-12-28T09:32:16;15.73;;;3.60;;
83929;SDS011;73959;52.130;5.584;2023-12-28T09:34:42;23.17;;;4.15;;
83929;SDS011;73959;52.130;5.584;2023-12-28T09:37:08;20.70;;;3.85;;
83929;SDS011;73959;52.130;5.584;2023-12-28T09:39:34;22.10;;;3.88;;
83929;SDS011;73959;52.130;5.584;2023-12-28T09:42:04;24.02;;;3.55;;
83929;SDS011;73959;52.130;5.584;2023-12-28T09:44:31;23.80;;;3.58;;
83929;SDS011;73959;52.130;5.584;2023-12-28T09:46:58;20.95;;;4.15;;
83929;SDS011;73959;52.130;5.584;2023-12-28T09:49:24;17.40;;;3.42;;
83929;SDS011;73959;52.130;5.584;2023-12-28T09:51:51;16.90;;;3.25;;
83929;SDS011;73959;52.130;5.584;2023-12-28T09:54:17;20.05;;;3.60;;
83929;SDS011;73959;52.130;5.584;2023-12-28T09:56:43;18.20;;;3.83;;
83929;SDS011;73959;52.130;5.584;2023-12-28T09:59:10;19.45;;;3.42;;
83929;SDS011;73959;52.130;5.584;2023-12-28T10:01:36;19.23;;;3.85;;
83929;SDS011;73959;52.130;5.584;2023-12-28T10:04:02;19.08;;;3.40;;
83929;SDS011;73959;52.130;5.584;2023-12-28T10:06:29;18.50;;;3.60;;
83929;SDS011;73959;52.130;5.584;2023-12-28T10:08:55;20.20;;;3.40;;
83929;SDS011;73959;52.130;5.584;2023-12-28T10:11:21;22.08;;;3.15;;
83929;SDS011;73959;52.130;5.584;2023-12-28T10:13:48;16.38;;;3.13;;
83929;SDS011;73959;52.130;5.584;2023-12-28T10:16:15;15.75;;;3.15;;
83929;SDS011;73959;52.130;5.584;2023-12-28T10:18:44;17.23;;;3.20;;
83929;SDS011;73959;52.130;5.584;2023-12-28T10:21:11;16.83;;;2.90;;
83929;SDS011;73959;52.130;5.584;2023-12-28T10:23:37;17.60;;;3.42;;
83929;SDS011;73959;52.130;5.584;2023-12-28T10:26:04;19.67;;;3.15;;
83929;SDS011;73959;52.130;5.584;2023-12-28T10:28:31;17.73;;;3.65;;
83929;SDS011;73959;52.130;5.584;2023-12-28T10:30:58;18.13;;;3.35;;
83929;SDS011;73959;52.130;5.584;2023-12-28T10:33:24;16.33;;;3.15;;
83929;SDS011;73959;52.130;5.584;2023-12-28T10:35:51;16.83;;;2.90;;
83929;SDS011;73959;52.130;5.584;2023-12-28T10:38:17;23.45;;;4.38;;
83929;SDS011;73959;52.130;5.584;2023-12-28T10:40:44;22.65;;;3.42;;
83929;SDS011;73959;52.130;5.584;2023-12-28T10:43:11;18.67;;;3.63;;
83929;SDS011;73959;52.130;5.584;2023-12-28T10:45:37;15.18;;;3.97;;
83929;SDS011;73959;52.130;5.584;2023-12-28T10:50:35;17.63;;;3.38;;
83929;SDS011;73959;52.130;5.584;2023-12-28T10:53:05;16.73;;;4.05;;
83929;SDS011;73959;52.130;5.584;2023-12-28T10:58:01;22.05;;;3.88;;
83929;SDS011;73959;52.130;5.584;2023-12-28T11:00:33;21.02;;;3.25;;
83929;SDS011;73959;52.130;5.584;2023-12-28T11:03:02;24.73;;;3.30;;
83929;SDS011;73959;52.130;5.584;2023-12-28T11:05:28;21.98;;;3.70;;
83929;SDS011;73959;52.130;5.584;2023-12-28T11:07:55;18.60;;;3.45;;
83929;SDS011;73959;52.130;5.584;2023-12-28T11:10:23;27.67;;;3.30;;
83929;SDS011;73959;52.130;5.584;2023-12-28T11:12:52;20.45;;;3.58;;
83929;SDS011;73959;52.130;5.584;2023-12-28T11:15:19;23.20;;;3.75;;
83929;SDS011;73959;52.130;5.584;2023-12-28T11:17:45;17.10;;;3.67;;
83929;SDS011;73959;52.130;5.584;2023-12-28T11:20:11;19.33;;;3.55;;
83929;SDS011;73959;52.130;5.584;2023-12-28T11:22:38;19.05;;;3.35;;
83929;SDS011;73959;52.130;5.584;2023-12-28T11:25:05;21.88;;;3.63;;
83929;SDS011;73959;52.130;5.584;2023-12-28T11:27:34;22.33;;;3.70;;
83929;SDS011;73959;52.130;5.584;2023-12-28T11:30:01;20.63;;;3.80;;
83929;SDS011;73959;52.130;5.584;2023-12-28T11:32:32;16.75;;;3.40;;
83929;SDS011;73959;52.130;5.584;2023-12-28T11:34:59;23.25;;;3.80;;
83929;SDS011;73959;52.130;5.584;2023-12-28T11:37:26;26.90;;;3.83;;
83929;SDS011;73959;52.130;5.584;2023-12-28T11:39:52;18.15;;;3.45;;
83929;SDS011;73959;52.130;5.584;2023-12-28T11:42:20;16.17;;;3.40;;
83929;SDS011;73959;52.130;5.584;2023-12-28T11:44:46;14.70;;;3.40;;
83929;SDS011;73959;52.130;5.584;2023-12-28T11:49:38;19.50;;;3.35;;
83929;SDS011;73959;52.130;5.584;2023-12-28T11:52:07;19.75;;;4.35;;
83929;SDS011;73959;52.130;5.584;2023-12-28T11:54:34;25.75;;;3.83;;
83929;SDS011;73959;52.130;5.584;2023-12-28T11:57:00;22.20;;;3.85;;
83929;SDS011;73959;52.130;5.584;2023-12-28T11:59:26;17.38;;;3.38;;
83929;SDS011;73959;52.130;5.584;2023-12-28T12:01:52;18.65;;;3.58;;
83929;SDS011;73959;52.130;5.584;2023-12-28T12:04:19;14.57;;;2.83;;
83929;SDS011;73959;52.130;5.584;2023-12-28T12:06:45;24.05;;;3.42;;
83929;SDS011;73959;52.130;5.584;2023-12-28T12:09:11;19.55;;;3.33;;
83929;SDS011;73959;52.130;5.584;2023-12-28T12:11:38;15.43;;;3.28;;
83929;SDS011;73959;52.130;5.584;2023-12-28T12:14:07;23.45;;;3.88;;
83929;SDS011;73959;52.130;5.584;2023-12-28T12:16:34;19.25;;;3.60;;
83929;SDS011;73959;52.130;5.584;2023-12-28T12:19:01;13.90;;;2.78;;
83929;SDS011;73959;52.130;5.584;2023-12-28T12:21:27;19.00;;;3.90;;
83929;SDS011;73959;52.130;5.584;2023-12-28T12:23:54;23.30;;;3.90;;
83929;SDS011;73959;52.130;5.584;2023-12-28T12:26:20;17.92;;;3.40;;
83929;SDS011;73959;52.130;5.584;2023-12-28T12:28:46;23.80;;;4.22;;
83929;SDS011;73959;52.130;5.584;2023-12-28T12:31:13;22.38;;;4.35;;
83929;SDS011;73959;52.130;5.584;2023-12-28T12:33:39;17.55;;;3.40;;
83929;SDS011;73959;52.130;5.584;2023-12-28T12:36:06;19.13;;;3.72;;
83929;SDS011;73959;52.130;5.584;2023-12-28T12:38:33;15.65;;;3.47;;
83929;SDS011;73959;52.130;5.584;2023-12-28T12:40:59;19.08;;;4.07;;
83929;SDS011;73959;52.130;5.584;2023-12-28T12:43:25;21.20;;;3.95;;
83929;SDS011;73959;52.130;5.584;2023-12-28T12:45:52;17.80;;;3.53;;
83929;SDS011;73959;52.130;5.584;2023-12-28T12:48:18;19.55;;;3.25;;
83929;SDS011;73959;52.130;5.584;2023-12-28T12:50:44;17.73;;;3.92;;
83929;SDS011;73959;52.130;5.584;2023-12-28T12:53:10;18.02;;;3.83;;
83929;SDS011;73959;52.130;5.584;2023-12-28T12:55:37;23.92;;;3.55;;
83929;SDS011;73959;52.130;5.584;2023-12-28T12:58:11;25.55;;;3.95;;
83929;SDS011;73959;52.130;5.584;2023-12-28T13:00:38;19.70;;;4.30;;
83929;SDS011;73959;52.130;5.584;2023-12-28T13:03:07;21.23;;;4.40;;
83929;SDS011;73959;52.130;5.584;2023-12-28T13:05:34;23.63;;;3.30;;
83929;SDS011;73959;52.130;5.584;2023-12-28T13:08:00;22.45;;;3.38;;
83929;SDS011;73959;52.130;5.584;2023-12-28T13:10:26;22.83;;;5.20;;
83929;SDS011;73959;52.130;5.584;2023-12-28T13:12:52;18.48;;;3.47;;
83929;SDS011;73959;52.130;5.584;2023-12-28T13:15:20;19.20;;;3.80;;
83929;SDS011;73959;52.130;5.584;2023-12-28T13:17:46;21.92;;;4.13;;
83929;SDS011;73959;52.130;5.584;2023-12-28T13:20:12;17.08;;;3.25;;
83929;SDS011;73959;52.130;5.584;2023-12-28T13:22:38;14.57;;;2.90;;
83929;SDS011;73959;52.130;5.584;2023-12-28T13:25:04;18.85;;;3.33;;
83929;SDS011;73959;52.130;5.584;2023-12-28T13:27:30;24.17;;;4.05;;
83929;SDS011;73959;52.130;5.584;2023-12-28T13:29:57;25.65;;;4.10;;
83929;SDS011;73959;52.130;5.584;2023-12-28T13:32:23;14.05;;;3.13;;
83929;SDS011;73959;52.130;5.584;2023-12-28T13:34:49;25.65;;;3.88;;
83929;SDS011;73959;52.130;5.584;2023-12-28T13:37:18;17.58;;;3.60;;
83929;SDS011;73959;52.130;5.584;2023-12-28T13:39:44;18.85;;;3.58;;
83929;SDS011;73959;52.130;5.584;2023-12-28T13:42:12;29.05;;;4.35;;
83929;SDS011;73959;52.130;5.584;2023-12-28T13:44:38;17.77;;;4.65;;
83929;SDS011;73959;52.130;5.584;2023-12-28T13:47:04;19.73;;;3.17;;
83929;SDS011;73959;52.130;5.584;2023-12-28T13:49:33;22.35;;;3.83;;
83929;SDS011;73959;52.130;5.584;2023-12-28T13:51:59;19.00;;;3.85;;
83929;SDS011;73959;52.130;5.584;2023-12-28T13:54:25;15.73;;;3.80;;
83929;SDS011;73959;52.130;5.584;2023-12-28T13:56:52;20.17;;;4.45;;
83929;SDS011;73959;52.130;5.584;2023-12-28T13:59:22;20.95;;;3.85;;
83929;SDS011;73959;52.130;5.584;2023-12-28T14:01:48;23.70;;;3.92;;
83929;SDS011;73959;52.130;5.584;2023-12-28T14:04:14;20.30;;;3.63;;
83929;SDS011;73959;52.130;5.584;2023-12-28T14:06:40;18.08;;;3.53;;
83929;SDS011;73959;52.130;5.584;2023-12-28T14:09:06;18.10;;;4.43;;
83929;SDS011;73959;52.130;5.584;2023-12-28T14:11:33;18.55;;;3.65;;
83929;SDS011;73959;52.130;5.584;2023-12-28T14:14:00;21.77;;;3.88;;
83929;SDS011;73959;52.130;5.584;2023-12-28T14:16:26;21.13;;;3.90;;
83929;SDS011;73959;52.130;5.584;2023-12-28T14:18:52;16.88;;;3.25;;
83929;SDS011;73959;52.130;5.584;2023-12-28T14:21:18;21.42;;;3.60;;
83929;SDS011;73959;52.130;5.584;2023-12-28T14:23:44;19.67;;;3.10;;
83929;SDS011;73959;52.130;5.584;2023-12-28T14:26:13;21.52;;;3.78;;
83929;SDS011;73959;52.130;5.584;2023-12-28T14:28:42;18.63;;;3.30;;
83929;SDS011;73959;52.130;5.584;2023-12-28T14:31:09;29.08;;;4.22;;
83929;SDS011;73959;52.130;5.584;2023-12-28T14:33:35;23.50;;;4.47;;
83929;SDS011;73959;52.130;5.584;2023-12-28T14:36:02;20.90;;;4.43;;
83929;SDS011;73959;52.130;5.584;2023-12-28T14:38:29;18.42;;;4.13;;
83929;SDS011;73959;52.130;5.584;2023-12-28T14:40:55;19.33;;;4.15;;
83929;SDS011;73959;52.130;5.584;2023-12-28T14:43:22;17.05;;;3.72;;